createdAt,value
2022-08-17T00:01:56.504Z,14.23
2022-08-17T00:03:58.586Z,19.02
2022-08-17T00:06:12.130Z,19.52
2022-08-17T00:08:17.160Z,15.07
2022-08-17T00:10:19.539Z,13.30
2022-08-17T00:12:41.115Z,16.65
2022-08-17T00:14:44.817Z,16.58
2022-08-17T00:16:56.582Z,21.13
2022-08-17T00:19:08.398Z,15.73
2022-08-17T00:21:11.983Z,18.55
2022-08-17T00:23:17.050Z,16.60
2022-08-17T00:25:20.166Z,16.73
2022-08-17T00:27:22.199Z,16.53
2022-08-17T00:29:24.175Z,11.38
2022-08-17T00:31:26.506Z,14.50
2022-08-17T00:33:31.235Z,13.75
2022-08-17T00:35:33.501Z,16.13
2022-08-17T00:37:35.966Z,20.45
2022-08-17T00:39:38.653Z,19.77
2022-08-17T00:41:42.479Z,16.27
2022-08-17T00:43:49.517Z,17.48
2022-08-17T00:45:51.457Z,21.10
2022-08-17T00:47:55.119Z,18.92
2022-08-17T00:49:57.064Z,20.45
2022-08-17T00:52:11.619Z,21.83
2022-08-17T00:54:42.067Z,17.92
2022-08-17T00:56:53.635Z,19.58
2022-08-17T00:58:55.858Z,22.17
2022-08-17T01:01:01.503Z,30.40
2022-08-17T01:03:10.682Z,18.95
2022-08-17T01:05:21.345Z,13.57
2022-08-17T01:07:25.249Z,16.70
2022-08-17T01:09:27.606Z,11.32
2022-08-17T01:11:31.184Z,14.23
2022-08-17T01:13:43.869Z,10.02
2022-08-17T01:15:58.586Z,10.07
2022-08-17T01:18:00.664Z,13.25
2022-08-17T01:20:03.179Z,10.63
2022-08-17T01:22:16.960Z,10.25
2022-08-17T01:24:19.299Z,11.18
2022-08-17T01:26:22.256Z,10.82
2022-08-17T01:28:52.510Z,11.68
2022-08-17T01:30:58.580Z,12.82
2022-08-17T01:33:01.490Z,14.68
2022-08-17T01:35:05.634Z,13.15
2022-08-17T01:37:07.583Z,13.60
2022-08-17T01:39:16.964Z,14.45
2022-08-17T01:41:21.966Z,13.48
2022-08-17T01:43:32.818Z,12.07
2022-08-17T01:45:42.281Z,15.85
2022-08-17T01:47:44.859Z,16.30
2022-08-17T01:49:49.487Z,16.13
2022-08-17T01:51:51.623Z,15.57
2022-08-17T01:53:58.115Z,13.27
2022-08-17T01:56:21.983Z,11.52
2022-08-17T01:58:24.494Z,13.65
2022-08-17T02:00:27.433Z,13.55
2022-08-17T02:02:49.415Z,14.45
2022-08-17T02:04:51.450Z,14.20
2022-08-17T02:06:54.586Z,14.98
2022-08-17T02:09:02.709Z,13.35
2022-08-17T02:11:12.178Z,11.02
2022-08-17T02:13:14.563Z,10.73
2022-08-17T02:15:16.498Z,14.63
2022-08-17T02:17:18.506Z,15.07
2022-08-17T02:19:20.466Z,17.30
2022-08-17T02:21:22.612Z,19.73
2022-08-17T02:23:26.632Z,14.45
2022-08-17T02:27:31.946Z,15.35
2022-08-17T02:29:33.918Z,20.67
2022-08-17T02:31:36.220Z,23.70
2022-08-17T02:33:43.253Z,12.75
2022-08-17T02:35:45.516Z,16.58
2022-08-17T02:37:48.977Z,12.93
2022-08-17T02:39:58.694Z,16.58
2022-08-17T02:42:02.443Z,22.10
2022-08-17T02:44:06.009Z,18.25
2022-08-17T02:46:08.098Z,14.88
2022-08-17T02:48:10.903Z,14.20
2022-08-17T02:50:17.672Z,15.77
2022-08-17T02:52:19.544Z,22.73
2022-08-17T02:54:42.492Z,21.23
2022-08-17T02:56:44.533Z,23.45
2022-08-17T02:58:46.535Z,17.05
2022-08-17T03:00:48.846Z,22.83
2022-08-17T03:02:52.010Z,19.17
2022-08-17T03:04:54.276Z,19.08
2022-08-17T03:06:56.298Z,18.85
2022-08-17T03:08:58.958Z,15.82
2022-08-17T03:11:01.114Z,20.90
2022-08-17T03:13:04.813Z,13.52
2022-08-17T03:15:12.599Z,16.65
2022-08-17T03:17:17.140Z,13.25
2022-08-17T03:19:19.436Z,17.73
2022-08-17T03:21:21.776Z,17.77
2022-08-17T03:23:25.412Z,18.38
2022-08-17T03:27:31.823Z,17.67
2022-08-17T03:29:33.769Z,13.85
2022-08-17T03:31:37.100Z,12.82
2022-08-17T03:33:39.224Z,19.17
2022-08-17T03:35:42.139Z,19.17
2022-08-17T03:37:46.559Z,27.27
2022-08-17T03:42:09.522Z,30.20
2022-08-17T03:44:31.392Z,26.10
2022-08-17T03:46:51.894Z,25.23
2022-08-17T03:49:12.270Z,21.90
2022-08-17T03:51:40.909Z,25.80
2022-08-17T03:54:09.307Z,25.30
2022-08-17T03:56:29.786Z,24.13
2022-08-17T03:58:31.731Z,22.73
2022-08-17T04:00:36.564Z,21.85
2022-08-17T04:02:42.828Z,29.33
2022-08-17T04:04:45.227Z,24.13
2022-08-17T04:06:48.065Z,26.35
2022-08-17T04:08:49.992Z,18.23
2022-08-17T04:10:51.907Z,19.23
2022-08-17T04:12:55.265Z,19.08
2022-08-17T04:14:57.578Z,26.38
2022-08-17T04:16:59.622Z,24.45
2022-08-17T04:19:02.693Z,21.58
2022-08-17T04:21:04.760Z,23.80
2022-08-17T04:23:10.271Z,23.30
2022-08-17T04:25:17.751Z,24.42
2022-08-17T04:27:19.844Z,24.70
2022-08-17T04:29:22.207Z,40.28
2022-08-17T04:31:25.560Z,33.08
2022-08-17T04:33:29.610Z,25.52
2022-08-17T04:35:54.197Z,23.13
2022-08-17T04:37:56.815Z,28.70
2022-08-17T04:40:17.457Z,26.38
2022-08-17T04:42:19.381Z,20.13
2022-08-17T04:44:37.248Z,20.42
2022-08-17T04:46:40.397Z,21.02
2022-08-17T04:48:45.006Z,20.15
2022-08-17T04:50:50.209Z,27.98
2022-08-17T04:52:54.199Z,23.48
2022-08-17T04:54:56.999Z,29.70
2022-08-17T04:56:59.010Z,29.63
2022-08-17T04:59:06.536Z,30.75
2022-08-17T05:01:08.608Z,33.35
2022-08-17T05:03:10.576Z,35.60
2022-08-17T05:05:12.729Z,28.65
2022-08-17T05:07:17.620Z,29.00
2022-08-17T05:09:21.851Z,22.23
2022-08-17T05:11:26.951Z,23.05
2022-08-17T05:13:29.871Z,22.23
2022-08-17T05:15:32.993Z,23.75
2022-08-17T05:17:37.742Z,24.95
2022-08-17T05:19:39.724Z,29.27
2022-08-17T05:21:41.605Z,27.65
2022-08-17T05:23:45.010Z,24.88
2022-08-17T05:25:55.452Z,24.13
2022-08-17T05:27:57.907Z,29.30
2022-08-17T05:30:00.611Z,27.40
2022-08-17T05:32:38.921Z,33.25
2022-08-17T05:34:32.430Z,26.13
2022-08-17T05:36:38.116Z,30.35
2022-08-17T05:38:45.806Z,28.55
2022-08-17T05:40:47.969Z,28.13
2022-08-17T05:42:50.405Z,26.98
2022-08-17T05:44:52.523Z,28.27
2022-08-17T05:46:54.889Z,24.40
2022-08-17T05:49:01.694Z,23.27
2022-08-17T05:51:21.124Z,22.27
2022-08-17T05:53:42.428Z,25.60
2022-08-17T05:56:03.881Z,23.83
2022-08-17T05:58:16.126Z,29.73
2022-08-17T06:00:33.234Z,30.35
2022-08-17T06:03:09.472Z,32.58
2022-08-17T06:05:28.627Z,24.02
2022-08-17T06:07:40.464Z,24.00
2022-08-17T06:09:49.068Z,23.60
2022-08-17T06:12:07.601Z,28.20
2022-08-17T06:14:44.722Z,25.63
2022-08-17T06:16:53.782Z,25.65
2022-08-17T06:19:00.668Z,30.27
2022-08-17T06:21:06.106Z,32.53
2022-08-17T06:23:12.803Z,28.85
2022-08-17T06:25:26.221Z,25.92
2022-08-17T06:27:47.237Z,32.65
2022-08-17T06:30:11.346Z,34.30
2022-08-17T06:32:14.678Z,32.55
2022-08-17T06:34:17.224Z,36.60
2022-08-17T06:36:30.285Z,38.65
2022-08-17T06:38:43.311Z,40.58
2022-08-17T06:40:57.158Z,47.88
2022-08-17T06:43:08.423Z,47.15
2022-08-17T06:45:31.341Z,45.97
2022-08-17T06:47:49.217Z,44.08
2022-08-17T06:50:03.397Z,43.17
2022-08-17T06:52:46.509Z,43.17
2022-08-17T06:55:06.510Z,44.65
2022-08-17T06:57:28.487Z,46.17
2022-08-17T06:59:54.867Z,41.75
2022-08-17T07:02:05.356Z,44.40
2022-08-17T07:04:13.680Z,42.25
2022-08-17T07:06:19.691Z,41.88
2022-08-17T07:08:40.992Z,41.25
2022-08-17T07:10:47.501Z,38.45
2022-08-17T07:12:52.189Z,44.95
2022-08-17T07:15:04.567Z,44.28
2022-08-17T07:17:13.938Z,45.75
2022-08-17T07:19:18.507Z,44.60
2022-08-17T07:21:52.230Z,46.75
2022-08-17T07:24:02.240Z,44.35
2022-08-17T07:26:09.088Z,45.33
2022-08-17T07:28:13.051Z,45.85
2022-08-17T07:30:28.797Z,43.97
2022-08-17T07:32:37.403Z,42.78
2022-08-17T07:35:00.972Z,44.72
2022-08-17T07:37:05.378Z,43.22
2022-08-17T07:39:08.095Z,46.03
2022-08-17T07:41:10.850Z,44.35
2022-08-17T07:43:23.250Z,39.42
2022-08-17T07:45:44.069Z,39.92
2022-08-17T07:48:10.148Z,41.97
2022-08-17T07:50:27.723Z,41.63
2022-08-17T07:52:51.910Z,44.33
2022-08-17T07:54:54.737Z,44.17
2022-08-17T07:57:00.307Z,44.22
2022-08-17T07:59:18.454Z,48.95
2022-08-17T08:01:25.441Z,42.97
2022-08-17T08:03:43.961Z,45.50
2022-08-17T08:05:57.853Z,43.72
2022-08-17T08:08:03.972Z,46.85
2022-08-17T08:10:08.474Z,45.90
2022-08-17T08:12:34.039Z,48.15
2022-08-17T08:14:38.592Z,46.72
2022-08-17T08:16:55.221Z,47.70
2022-08-17T08:19:00.687Z,47.97
2022-08-17T08:21:10.389Z,45.25
2022-08-17T08:23:36.968Z,46.55
2022-08-17T08:26:01.321Z,43.85
2022-08-17T08:28:05.974Z,42.50
2022-08-17T08:30:14.438Z,44.05
2022-08-17T08:32:37.404Z,44.65
2022-08-17T08:35:01.271Z,43.72
2022-08-17T08:37:39.220Z,41.35
2022-08-17T08:40:07.546Z,41.13
2022-08-17T08:42:24.253Z,40.67
2022-08-17T08:45:00.160Z,40.13
2022-08-17T08:47:28.953Z,38.30
2022-08-17T08:50:03.271Z,35.92
2022-08-17T08:52:18.157Z,34.25
2022-08-17T08:54:50.106Z,33.97
2022-08-17T08:57:33.989Z,38.08
2022-08-17T08:59:44.310Z,35.08
2022-08-17T09:02:08.044Z,34.67
2022-08-17T09:04:25.674Z,36.47
2022-08-17T09:06:47.711Z,32.78
2022-08-17T09:09:04.589Z,31.02
2022-08-17T09:11:16.519Z,30.13
2022-08-17T09:13:32.706Z,31.85
2022-08-17T09:15:40.313Z,29.65
2022-08-17T09:19:00.247Z,29.40
2022-08-17T09:20:32.954Z,34.90
2022-08-17T09:22:43.018Z,34.63
2022-08-17T09:25:09.122Z,35.17
2022-08-17T09:27:30.589Z,35.00
2022-08-17T09:29:36.647Z,36.28
2022-08-17T09:31:52.656Z,35.78
2022-08-17T09:33:58.721Z,37.65
2022-08-17T09:36:05.455Z,35.50
2022-08-17T09:38:32.670Z,35.47
2022-08-17T09:40:52.869Z,37.10
2022-08-17T09:43:07.758Z,30.38
2022-08-17T09:45:34.642Z,31.50
2022-08-17T09:48:02.460Z,30.02
2022-08-17T09:50:13.449Z,30.15
2022-08-17T09:52:25.549Z,28.80
2022-08-17T09:54:41.139Z,31.30
2022-08-17T09:57:27.960Z,32.65
2022-08-17T09:59:38.402Z,31.85
2022-08-17T10:02:09.291Z,30.90
2022-08-17T10:04:43.072Z,30.42
2022-08-17T10:07:07.885Z,32.58
2022-08-17T10:12:03.317Z,32.05
2022-08-17T10:14:36.785Z,34.90
2022-08-17T10:16:51.238Z,33.28
2022-08-17T10:19:10.693Z,34.00
2022-08-17T10:21:36.303Z,32.97
2022-08-17T10:23:57.248Z,31.77
2022-08-17T10:26:16.654Z,31.33
2022-08-17T10:28:29.818Z,32.60
2022-08-17T10:30:36.644Z,32.55
2022-08-17T10:32:55.194Z,32.22
2022-08-17T10:35:03.427Z,33.50
2022-08-17T10:37:20.450Z,30.55
2022-08-17T10:39:27.726Z,31.55
2022-08-17T10:41:40.834Z,32.35
2022-08-17T10:44:38.165Z,31.35
2022-08-17T10:46:39.766Z,31.02
2022-08-17T10:48:42.750Z,29.23
2022-08-17T10:51:04.012Z,31.00
2022-08-17T10:53:06.087Z,30.38
2022-08-17T10:55:19.030Z,28.02
2022-08-17T10:57:42.761Z,29.27
2022-08-17T10:59:47.205Z,28.85
2022-08-17T11:01:49.037Z,28.58
2022-08-17T11:03:56.755Z,28.63
2022-08-17T11:06:06.838Z,27.65
2022-08-17T11:08:27.513Z,27.67
2022-08-17T11:10:42.274Z,25.70
2022-08-17T11:13:01.245Z,25.15
2022-08-17T11:15:25.164Z,24.98
2022-08-17T11:17:47.486Z,26.35
2022-08-17T11:20:14.178Z,24.58
2022-08-17T11:22:43.422Z,21.98
2022-08-17T11:24:51.463Z,21.08
2022-08-17T11:27:20.052Z,18.45
2022-08-17T11:29:25.683Z,20.33
2022-08-17T11:31:40.040Z,19.75
2022-08-17T11:33:42.023Z,19.05
2022-08-17T11:35:51.267Z,17.95
2022-08-17T11:38:15.932Z,17.30
2022-08-17T11:40:46.380Z,16.02
2022-08-17T11:42:51.468Z,15.95
2022-08-17T11:45:02.415Z,16.33
2022-08-17T11:51:01.861Z,15.02
2022-08-17T11:53:04.130Z,13.77
2022-08-17T11:55:33.925Z,14.00
2022-08-17T11:57:41.671Z,13.60
2022-08-17T11:59:46.045Z,12.73
2022-08-17T12:01:52.564Z,12.60
2022-08-17T12:06:34.782Z,12.40
2022-08-17T12:08:43.490Z,14.40
2022-08-17T12:10:59.720Z,15.38
2022-08-17T12:13:13.070Z,14.65
2022-08-17T12:15:19.379Z,15.63
2022-08-17T12:17:41.613Z,13.80
2022-08-17T12:19:44.282Z,14.30
2022-08-17T12:22:02.107Z,14.05
2022-08-17T12:24:25.697Z,12.52
2022-08-17T12:26:31.999Z,12.48
2022-08-17T12:28:36.614Z,13.13
2022-08-17T12:30:38.786Z,12.07
2022-08-17T12:32:41.599Z,13.48
2022-08-17T12:34:46.581Z,13.60
2022-08-17T12:36:51.325Z,12.63
2022-08-17T12:39:13.025Z,12.13
2022-08-17T12:41:40.889Z,12.82
2022-08-17T12:43:42.837Z,15.00
2022-08-17T12:45:46.353Z,15.07
2022-08-17T12:47:48.286Z,15.07
2022-08-17T12:50:08.369Z,15.32
2022-08-17T12:52:32.996Z,16.58
2022-08-17T12:54:41.561Z,16.45
2022-08-17T12:56:45.992Z,15.05
2022-08-17T12:58:54.162Z,16.02
2022-08-17T13:01:11.085Z,17.17
2022-08-17T13:03:19.194Z,16.40
2022-08-17T13:05:23.515Z,16.73
2022-08-17T13:07:28.164Z,16.75
2022-08-17T13:09:36.070Z,16.65
2022-08-17T13:11:55.558Z,16.08
2022-08-17T13:14:09.345Z,15.60
2022-08-17T13:16:17.308Z,15.98
2022-08-17T13:18:40.338Z,14.38
2022-08-17T13:20:53.441Z,13.32
2022-08-17T13:22:58.693Z,15.23
2022-08-17T13:25:09.195Z,14.55
2022-08-17T13:27:15.339Z,15.57
2022-08-17T13:29:37.463Z,14.45
2022-08-17T13:31:44.086Z,15.25
2022-08-17T13:34:24.321Z,14.23
2022-08-17T13:36:30.251Z,12.90
2022-08-17T13:38:45.634Z,16.63
2022-08-17T13:40:53.267Z,16.00
2022-08-17T13:42:57.166Z,15.65
2022-08-17T13:45:00.859Z,17.40
2022-08-17T13:47:15.934Z,16.30
2022-08-17T13:49:21.302Z,18.00
2022-08-17T13:51:30.586Z,18.95
2022-08-17T13:53:40.462Z,19.35
2022-08-17T13:55:49.845Z,16.65
2022-08-17T13:58:00.900Z,18.13
2022-08-17T14:00:41.201Z,17.90
2022-08-17T14:02:43.394Z,15.90
2022-08-17T14:04:48.674Z,19.60
2022-08-17T14:06:57.775Z,17.63
2022-08-17T14:09:02.299Z,16.90
2022-08-17T14:11:04.246Z,16.55
2022-08-17T14:13:07.424Z,15.13
2022-08-17T14:15:10.859Z,14.73
2022-08-17T14:17:13.261Z,14.13
2022-08-17T14:19:15.881Z,14.60
2022-08-17T14:21:17.813Z,13.50
2022-08-17T14:23:20.989Z,13.18
2022-08-17T14:25:27.724Z,13.60
2022-08-17T14:27:34.113Z,13.55
2022-08-17T14:29:49.462Z,14.57
2022-08-17T14:31:54.169Z,14.10
2022-08-17T14:33:58.879Z,13.32
2022-08-17T14:36:00.967Z,13.70
2022-08-17T14:38:02.848Z,15.45
2022-08-17T14:40:11.365Z,15.50
2022-08-17T14:42:15.560Z,15.50
2022-08-17T14:44:17.542Z,15.27
2022-08-17T14:46:20.160Z,14.88
2022-08-17T14:48:22.354Z,16.13
2022-08-17T14:50:24.336Z,15.00
2022-08-17T14:52:26.193Z,15.10
2022-08-17T14:54:34.221Z,13.98
2022-08-17T14:56:37.889Z,14.65
2022-08-17T14:58:42.960Z,15.10
2022-08-17T15:00:44.893Z,14.32
2022-08-17T15:02:53.866Z,14.00
2022-08-17T15:05:05.289Z,14.10
2022-08-17T15:07:07.665Z,14.77
2022-08-17T15:09:09.739Z,14.80
2022-08-17T15:11:14.461Z,13.18
2022-08-17T15:13:22.712Z,14.30
2022-08-17T15:15:24.987Z,14.02
2022-08-17T15:17:26.959Z,13.98
2022-08-17T15:19:47.259Z,14.20
2022-08-17T15:21:49.205Z,15.10
2022-08-17T15:23:51.158Z,14.52
2022-08-17T15:25:56.091Z,14.73
2022-08-17T15:27:58.431Z,15.65
2022-08-17T15:30:01.522Z,15.00
2022-08-17T15:32:03.726Z,16.50
2022-08-17T15:34:07.945Z,13.93
2022-08-17T15:36:10.934Z,14.98
2022-08-17T15:38:13.453Z,13.30
2022-08-17T15:40:15.426Z,15.00
2022-08-17T15:42:18.722Z,13.30
2022-08-17T15:44:21.213Z,13.82
2022-08-17T15:46:31.996Z,13.88
2022-08-17T15:48:43.459Z,12.45
2022-08-17T15:50:45.381Z,13.93
2022-08-17T15:52:47.631Z,13.07
2022-08-17T15:54:55.308Z,13.63
2022-08-17T15:56:57.231Z,13.10
2022-08-17T15:58:59.644Z,13.80
2022-08-17T16:01:14.914Z,14.45
2022-08-17T16:03:58.092Z,15.45
2022-08-17T16:05:43.185Z,12.02
2022-08-17T16:07:45.523Z,11.00
2022-08-17T16:09:50.520Z,12.77
2022-08-17T16:11:55.702Z,11.07
2022-08-17T16:13:58.131Z,12.13
2022-08-17T16:16:00.221Z,14.65
2022-08-17T16:18:02.973Z,15.02
2022-08-17T16:20:05.707Z,14.10
2022-08-17T16:22:10.762Z,14.70
2022-08-17T16:24:13.561Z,14.60
2022-08-17T16:26:17.216Z,15.38
2022-08-17T16:28:19.229Z,14.60
2022-08-17T16:30:24.586Z,14.95
2022-08-17T16:32:31.955Z,15.10
2022-08-17T16:34:37.887Z,14.88
2022-08-17T16:36:39.897Z,14.63
2022-08-17T16:38:41.799Z,14.63
2022-08-17T16:40:43.711Z,15.68
2022-08-17T16:42:47.514Z,13.93
2022-08-17T16:44:49.482Z,14.30
2022-08-17T16:46:51.629Z,15.18
2022-08-17T16:48:53.695Z,13.18
2022-08-17T16:51:03.952Z,13.18
2022-08-17T16:53:10.468Z,13.25
2022-08-17T16:55:13.315Z,13.73
2022-08-17T16:57:17.322Z,13.57
2022-08-17T16:59:30.990Z,13.88
2022-08-17T17:01:41.820Z,11.85
2022-08-17T17:03:47.617Z,13.10
2022-08-17T17:06:03.617Z,13.45
2022-08-17T17:08:19.648Z,13.25
2022-08-17T17:10:28.506Z,13.32
2022-08-17T17:13:01.147Z,12.52
2022-08-17T17:14:59.400Z,12.93
2022-08-17T17:17:24.906Z,12.57
2022-08-17T17:19:45.776Z,11.77
2022-08-17T17:22:08.609Z,12.68
2022-08-17T17:24:19.235Z,11.57
2022-08-17T17:26:24.663Z,11.85
2022-08-17T17:28:33.559Z,11.20
2022-08-17T17:30:52.567Z,9.85
2022-08-17T17:33:14.519Z,10.48
2022-08-17T17:35:25.779Z,10.63
2022-08-17T17:37:34.116Z,10.48
2022-08-17T17:39:51.349Z,9.20
2022-08-17T17:41:57.380Z,9.93
2022-08-17T17:44:24.661Z,8.95
2022-08-17T17:46:34.372Z,9.55
2022-08-17T17:48:36.425Z,9.15
2022-08-17T17:51:01.753Z,7.93
2022-08-17T17:53:12.945Z,8.75
2022-08-17T17:55:33.964Z,9.00
2022-08-17T17:58:01.270Z,9.10
2022-08-17T18:00:06.076Z,9.02
2022-08-17T18:02:51.956Z,9.23
2022-08-17T18:05:06.488Z,10.13
2022-08-17T18:07:18.220Z,9.57
2022-08-17T18:09:33.877Z,9.43
2022-08-17T18:11:50.748Z,7.55
2022-08-17T18:14:22.356Z,5.47
2022-08-17T18:16:26.561Z,4.90
2022-08-17T18:18:38.953Z,3.72
2022-08-17T18:20:53.997Z,3.70
2022-08-17T18:22:58.022Z,3.60
2022-08-17T18:25:00.047Z,3.20
2022-08-17T18:27:08.565Z,3.53
2022-08-17T18:29:30.211Z,3.47
2022-08-17T18:31:32.125Z,3.80
2022-08-17T18:33:34.951Z,3.90
2022-08-17T18:35:36.928Z,4.38
2022-08-17T18:37:45.326Z,5.07
2022-08-17T18:39:47.335Z,4.63
2022-08-17T18:41:53.546Z,5.13
2022-08-17T18:44:04.481Z,5.50
2022-08-17T18:46:28.429Z,6.32
2022-08-17T18:50:41.670Z,6.20
2022-08-17T18:52:44.353Z,7.38
2022-08-17T18:54:58.497Z,6.63
2022-08-17T18:57:02.095Z,7.43
2022-08-17T18:59:38.922Z,6.43
2022-08-17T19:02:10.038Z,8.85
2022-08-17T19:04:33.875Z,8.52
2022-08-17T19:06:37.813Z,8.32
2022-08-17T19:08:40.963Z,8.30
2022-08-17T19:10:46.683Z,8.95
2022-08-17T19:12:52.036Z,9.23
2022-08-17T19:14:56.280Z,9.15
2022-08-17T19:17:09.890Z,8.85
2022-08-17T19:19:21.089Z,9.37
2022-08-17T19:21:38.630Z,9.55
2022-08-17T19:24:19.477Z,9.32
2022-08-17T19:26:54.032Z,9.35
2022-08-17T19:29:00.704Z,9.70
2022-08-17T19:31:10.053Z,10.85
2022-08-17T19:33:12.099Z,10.45
2022-08-17T19:35:17.645Z,11.00
2022-08-17T19:37:53.595Z,10.80
2022-08-17T19:39:58.344Z,9.05
2022-08-17T19:42:22.138Z,9.98
2022-08-17T19:44:51.036Z,10.38
2022-08-17T19:47:07.791Z,11.07
2022-08-17T19:49:33.438Z,10.60
2022-08-17T19:51:50.316Z,9.98
2022-08-17T19:54:26.558Z,12.25
2022-08-17T19:57:01.795Z,9.35
2022-08-17T19:59:36.129Z,9.27
2022-08-17T20:01:49.234Z,10.48
2022-08-17T20:03:57.827Z,10.18
2022-08-17T20:06:12.602Z,11.18
2022-08-17T20:08:21.614Z,10.98
2022-08-17T20:10:54.576Z,11.48
2022-08-17T20:13:04.212Z,10.70
2022-08-17T20:15:30.013Z,11.10
2022-08-17T20:17:40.386Z,11.85
2022-08-17T20:19:59.320Z,11.30
2022-08-17T20:22:11.744Z,10.32
2022-08-17T20:24:20.316Z,10.60
2022-08-17T20:26:27.503Z,9.65
2022-08-17T20:28:34.442Z,9.00
2022-08-17T20:30:39.969Z,9.73
2022-08-17T20:32:59.187Z,10.00
2022-08-17T20:35:07.380Z,9.55
2022-08-17T20:37:15.099Z,8.15
2022-08-17T20:39:45.908Z,9.25
2022-08-17T20:42:03.623Z,8.60
2022-08-17T20:44:06.760Z,8.18
2022-08-17T20:46:53.926Z,8.90
2022-08-17T20:49:16.930Z,7.70
2022-08-17T20:51:23.417Z,7.60
2022-08-17T20:54:00.792Z,6.95
2022-08-17T20:56:02.744Z,7.72
2022-08-17T20:58:16.518Z,7.45
2022-08-17T21:00:44.720Z,7.75
2022-08-17T21:02:50.003Z,7.20
2022-08-17T21:04:53.011Z,7.28
2022-08-17T21:07:25.378Z,6.80
2022-08-17T21:09:30.957Z,7.18
2022-08-17T21:12:03.461Z,7.57
2022-08-17T21:14:24.737Z,8.75
2022-08-17T21:16:53.466Z,7.45
2022-08-17T21:19:31.280Z,5.63
2022-08-17T21:21:59.631Z,7.68
2022-08-17T21:24:11.698Z,6.60
2022-08-17T21:26:50.583Z,5.68
2022-08-17T21:29:30.101Z,6.55
2022-08-17T21:31:43.180Z,6.80
2022-08-17T21:34:16.914Z,6.18
2022-08-17T21:36:24.523Z,6.85
2022-08-17T21:38:41.672Z,6.13
2022-08-17T21:40:46.920Z,6.43
2022-08-17T21:42:58.163Z,6.90
2022-08-17T21:45:23.211Z,7.10
2022-08-17T21:47:29.818Z,7.13
2022-08-17T21:49:31.868Z,6.45
2022-08-17T21:51:50.077Z,7.15
2022-08-17T21:53:58.311Z,6.50
2022-08-17T21:56:00.804Z,6.30
2022-08-17T21:58:19.251Z,7.03
2022-08-17T22:00:29.819Z,7.22
2022-08-17T22:02:37.034Z,8.10
2022-08-17T22:04:41.490Z,7.15
2022-08-17T22:06:52.307Z,6.78
2022-08-17T22:09:06.563Z,7.10
2022-08-17T22:11:10.604Z,7.13
2022-08-17T22:13:19.799Z,6.97
2022-08-17T22:15:21.955Z,6.90
2022-08-17T22:17:23.862Z,7.43
2022-08-17T22:19:26.831Z,7.32
2022-08-17T22:21:28.805Z,7.28
2022-08-17T22:23:53.247Z,8.50
2022-08-17T22:26:15.846Z,7.57
2022-08-17T22:28:52.410Z,7.75
2022-08-17T22:31:04.434Z,8.32
2022-08-17T22:33:27.880Z,8.63
2022-08-17T22:35:34.474Z,9.35
2022-08-17T22:37:36.469Z,9.05
2022-08-17T22:39:40.869Z,9.13
2022-08-17T22:42:00.234Z,10.20
2022-08-17T22:44:19.993Z,9.68
2022-08-17T22:46:23.950Z,10.10
2022-08-17T22:48:28.956Z,9.88
2022-08-17T22:50:33.098Z,10.77
2022-08-17T22:52:56.731Z,10.45
2022-08-17T22:55:33.176Z,9.15
2022-08-17T22:58:05.515Z,9.25
2022-08-17T23:00:30.033Z,8.60
2022-08-17T23:02:34.665Z,8.70
2022-08-17T23:04:39.363Z,8.32
2022-08-17T23:06:44.950Z,8.75
2022-08-17T23:08:54.689Z,7.65
2022-08-17T23:10:56.911Z,7.38
2022-08-17T23:13:00.442Z,6.93
2022-08-17T23:15:07.021Z,7.00
2022-08-17T23:17:09.056Z,7.13
2022-08-17T23:19:13.128Z,6.60
2022-08-17T23:23:26.672Z,6.65
2022-08-17T23:25:32.343Z,6.63
2022-08-17T23:27:34.301Z,6.60
2022-08-17T23:29:39.427Z,6.68
2022-08-17T23:31:41.753Z,5.32
2022-08-17T23:33:43.953Z,6.05
2022-08-17T23:35:45.941Z,6.50
2022-08-17T23:37:47.833Z,6.13
2022-08-17T23:39:49.822Z,6.25
2022-08-17T23:41:53.558Z,6.00
2022-08-17T23:43:55.602Z,5.90
2022-08-17T23:45:59.863Z,5.97
2022-08-17T23:48:02.405Z,5.78
2022-08-17T23:50:05.551Z,5.95
2022-08-17T23:52:15.010Z,6.47
2022-08-17T23:54:31.460Z,5.85
2022-08-17T23:56:33.614Z,6.80
2022-08-17T23:58:35.467Z,6.20
